Airfield :
LOGIN :

Register | Disclaimer

   EN    FR    IT 

 










Legend :    VFR   Marginal VFR   IFR   Intensive IFR   Very Intensive IFR
Visi :
Ceiling :
>= 8 km
>= 3000ft
5 to 8 km
1000 to 3000 ft
1500m to 5 km
500 to 1000 ft
800 to 1500m
200 to 500 ft
< 800m
< 200 ft
Symbols :   Thunderstorms  Fog  Heavy snow  Heavy precipitations  Wind > 20 kt
SIGMETs :     Misc.  Thunderstorms  Icing  Turbulence  Mountain Waves  Volcanic Ashes







- Airport Elevation : 38 ft
- IATA code : BOH
- Download approach charts


EGHH - Bournemouth

CURRENT METAR :
  • 190720Z 34006KT 5000 BR BKN005 15/14 Q1007

EXPIRED METARs :
  • 190650Z 35005KT 300V050 5000 BR BKN005 15/14 Q1007
  • 190620Z VRB03KT 5000 BR BKN005 15/14 Q1007
  • 190550Z VRB03KT 5000 BR BKN006 14/14 Q1007
  • 190520Z 33004KT 300V010 5000 BR SCT007 14/14 Q1007
  • 190450Z VRB02KT 5000 BR SCT007 14/14 Q1007

TAF TAF EGHH
Valid from the 19 at 06:00 until the 19 at 15:00 UTC


190531Z 1906/1915 32008KT 9999 SCT030
TEMPO 1906/1908 3000 BR BKN007
PROB30
TEMPO 1908/1910 7000 -SHRA
ATIS : +44 1202 364 151
Met : +44 1202 364 158 (TAF)
No reported NOTAMs for that airfield.
2 SIGMETs reported for the London FIR (EGTT) :
 
Embedded thunderstorms
EGTT SIGMET 03 VALID 190545/190900 EGRR
EGTT LONDON FIR EMBD TS FCST WI N5331 E00317 - N5421 E00301 - N5421 E00427 - N5329 E00342 - N5331 E00317 TOP FL330 MOV NE 25KT NC=
Embedded thunderstorms
EGTT SIGMET 02 VALID 190500/190900 EGRR
EGTT LONDON FIR EMBD TS FCST WI N5130 E00200 - N5107 E00200 - N5100 E00128 - N5040 E00128 - N5000 W00015 - N5000 W00139 - N5130 E00200 TOP FL330 MOV NE 25KT NC=



MET'MAP, your aeronautical weather chart ! - Copyright ORBIFLY December 2007 - Disclaimer

ORBIFLY MET'MAP TEAM :

Programming & Development : Alexandra Zaïnal
Concept & Development : Baudouin d'Aumeries
Co-Development & Prog : Marc-Olivier Méhu
Technical & hardware support : Manuel Goepfert

Contact : metmap@orbifly.com




SOURCES & CREDITS :

   NOAA